createdAt,value
2019-02-23T00:01:04.692Z,95158.45
2019-02-23T00:03:30.993Z,95163.67
2019-02-23T00:05:57.343Z,95168.45
2019-02-23T00:08:23.688Z,95171.22
2019-02-23T00:10:50.084Z,95179.95
2019-02-23T00:13:16.444Z,95191.43
2019-02-23T00:15:42.827Z,95209.13
2019-02-23T00:18:09.461Z,95216.33
2019-02-23T00:20:35.580Z,95231.28
2019-02-23T00:23:02.003Z,95242.02
2019-02-23T00:25:28.422Z,95251.75
2019-02-23T00:27:54.771Z,95264.88
2019-02-23T00:30:21.125Z,95276.14
2019-02-23T00:32:47.568Z,95293.66
2019-02-23T00:35:13.990Z,95310.55
2019-02-23T00:37:40.335Z,95314.86
2019-02-23T00:40:06.947Z,95326.24
2019-02-23T00:42:33.308Z,95334.86
2019-02-23T00:44:59.660Z,95343.93
2019-02-23T00:47:25.994Z,95353.03
2019-02-23T00:49:52.368Z,95349.75
2019-02-23T00:52:18.767Z,95370.44
2019-02-23T00:54:45.104Z,95375.96
2019-02-23T00:57:11.506Z,95384.95
2019-02-23T00:59:37.938Z,95390.20
2019-02-23T01:02:04.315Z,95403.94
2019-02-23T01:04:30.659Z,95408.06
2019-02-23T01:06:57.064Z,95415.42
2019-02-23T01:09:23.496Z,95417.70
2019-02-23T01:11:49.808Z,95431.36
2019-02-23T01:14:16.143Z,95439.52
2019-02-23T01:16:42.529Z,95442.57
2019-02-23T01:19:08.897Z,95445.22
2019-02-23T01:21:35.397Z,95452.92
2019-02-23T01:24:01.766Z,95462.73
2019-02-23T01:26:28.126Z,95459.45
2019-02-23T01:28:54.503Z,95470.36
2019-02-23T01:31:20.858Z,95469.53
2019-02-23T01:33:47.258Z,95471.27
2019-02-23T01:36:13.596Z,95473.19
2019-02-23T01:38:39.952Z,95478.13
2019-02-23T01:41:06.287Z,95482.73
2019-02-23T01:43:32.675Z,95486.58
2019-02-23T01:45:59.042Z,95484.81
2019-02-23T01:48:25.399Z,95490.89
2019-02-23T01:50:51.751Z,95496.74
2019-02-23T01:53:18.144Z,95491.34
2019-02-23T01:55:44.516Z,95499.30
2019-02-23T01:58:10.993Z,95504.44
2019-02-23T02:00:37.334Z,95507.94
2019-02-23T02:03:03.677Z,95507.56
2019-02-23T02:05:30.088Z,95512.32
2019-02-23T02:07:56.439Z,95523.04
2019-02-23T02:10:22.783Z,95521.30
2019-02-23T02:12:49.140Z,95526.44
2019-02-23T02:15:15.548Z,95535.52
2019-02-23T02:17:41.940Z,95539.72
2019-02-23T02:20:11.329Z,95545.34
2019-02-23T02:22:34.612Z,95554.83
2019-02-23T02:25:01.067Z,95559.52
2019-02-23T02:27:27.499Z,95565.92
2019-02-23T02:29:53.819Z,95571.61
2019-02-23T02:32:20.355Z,95578.48
2019-02-23T02:34:46.704Z,95582.78
2019-02-23T02:37:13.044Z,95588.37
2019-02-23T02:39:39.386Z,95597.34
2019-02-23T02:42:05.742Z,95606.33
2019-02-23T02:44:32.159Z,95608.55
2019-02-23T02:46:58.548Z,95615.59
2019-02-23T02:49:24.907Z,95619.61
2019-02-23T02:51:51.303Z,95626.10
2019-02-23T02:54:17.665Z,95631.05
2019-02-23T02:56:44.005Z,95644.34
2019-02-23T02:59:10.365Z,95648.29
2019-02-23T03:01:36.837Z,95649.19
2019-02-23T03:04:03.174Z,95654.59
2019-02-23T03:06:29.503Z,95666.77
2019-02-23T03:08:55.856Z,95673.19
2019-02-23T03:11:22.202Z,95681.81
2019-02-23T03:13:48.557Z,95686.49
2019-02-23T03:16:14.927Z,95686.49
2019-02-23T03:18:42.691Z,95687.29
2019-02-23T03:21:07.850Z,95691.31
2019-02-23T03:23:34.181Z,95690.96
2019-02-23T03:26:00.569Z,95694.81
2019-02-23T03:28:27.781Z,95704.31
2019-02-23T03:30:54.125Z,95702.13
2019-02-23T03:33:20.479Z,95693.49
2019-02-23T03:35:46.839Z,95693.77
2019-02-23T03:38:13.341Z,95696.95
2019-02-23T03:40:39.731Z,95702.30
2019-02-23T03:43:06.104Z,95705.87
2019-02-23T03:45:32.452Z,95706.77
2019-02-23T03:47:58.871Z,95717.58
2019-02-23T03:50:25.251Z,95724.27
2019-02-23T03:52:51.633Z,95728.95
2019-02-23T03:55:17.980Z,95733.80
2019-02-23T03:57:44.364Z,95738.93
2019-02-23T04:00:10.726Z,95735.60
2019-02-23T04:02:37.102Z,95736.88
2019-02-23T04:05:03.436Z,95739.97
2019-02-23T04:07:29.782Z,95751.44
2019-02-23T04:09:56.210Z,95757.92
2019-02-23T04:12:22.663Z,95757.78
2019-02-23T04:14:49.017Z,95752.34
2019-02-23T04:17:15.372Z,95753.14
2019-02-23T04:19:41.753Z,95755.36
2019-02-23T04:22:08.111Z,95760.42
2019-02-23T04:24:34.580Z,95774.66
2019-02-23T04:27:00.973Z,95785.20
2019-02-23T04:29:27.354Z,95778.89
2019-02-23T04:31:53.785Z,95783.28
2019-02-23T04:34:20.153Z,95798.67
2019-02-23T04:36:46.504Z,95802.36
2019-02-23T04:39:12.949Z,95812.78
2019-02-23T04:41:39.218Z,95816.63
2019-02-23T04:44:05.574Z,95817.85
2019-02-23T04:46:31.968Z,95820.25
2019-02-23T04:48:58.342Z,95824.27
2019-02-23T04:51:24.731Z,95824.17
2019-02-23T04:53:51.103Z,95823.44
2019-02-23T04:56:17.575Z,95823.05
2019-02-23T04:58:43.927Z,95825.09
2019-02-23T05:01:10.439Z,95824.61
2019-02-23T05:03:36.797Z,95830.91
2019-02-23T05:06:03.151Z,95841.00
2019-02-23T05:08:29.596Z,95843.66
2019-02-23T05:10:55.908Z,95849.75
2019-02-23T05:13:22.269Z,95848.85
2019-02-23T05:15:48.601Z,95848.41
2019-02-23T05:18:14.990Z,95856.93
2019-02-23T05:20:41.342Z,95858.28
2019-02-23T05:23:07.670Z,95867.12
2019-02-23T05:25:34.007Z,95877.67
2019-02-23T05:28:00.378Z,95885.45
2019-02-23T05:30:26.746Z,95886.80
2019-02-23T05:32:53.041Z,95894.94
2019-02-23T05:35:22.224Z,95904.08
2019-02-23T05:37:48.561Z,95916.58
2019-02-23T05:40:14.901Z,95923.24
2019-02-23T05:42:41.331Z,95930.78
2019-02-23T05:45:07.641Z,95938.17
2019-02-23T05:47:33.963Z,95952.73
2019-02-23T05:50:00.382Z,95960.27
2019-02-23T05:52:26.648Z,95965.30
2019-02-23T05:54:52.983Z,95960.11
2019-02-23T05:57:19.331Z,95970.67
2019-02-23T05:59:45.763Z,95974.37
2019-02-23T06:02:12.099Z,95978.22
2019-02-23T06:04:38.740Z,95977.98
2019-02-23T06:07:05.040Z,95982.60
2019-02-23T06:09:31.397Z,95978.60
2019-02-23T06:11:57.817Z,95989.89
2019-02-23T06:14:24.155Z,96003.55
2019-02-23T06:16:50.536Z,96003.77
2019-02-23T06:19:17.023Z,96003.02
2019-02-23T06:21:53.081Z,96020.97
2019-02-23T06:24:09.737Z,96024.37
2019-02-23T06:26:36.068Z,96027.59
2019-02-23T06:29:02.422Z,96035.52
2019-02-23T06:31:28.777Z,96037.73
2019-02-23T06:33:55.166Z,96047.06
2019-02-23T06:36:21.460Z,96049.92
2019-02-23T06:38:47.847Z,96050.01
2019-02-23T06:41:14.308Z,96058.69
2019-02-23T06:43:45.158Z,96058.75
2019-02-23T06:46:11.498Z,96068.61
2019-02-23T06:48:37.847Z,96073.69
2019-02-23T06:51:04.201Z,96082.22
2019-02-23T06:53:30.533Z,96089.45
2019-02-23T06:55:56.934Z,96091.19
2019-02-23T06:58:23.245Z,96104.70
2019-02-23T07:00:49.574Z,96098.25
2019-02-23T07:03:15.974Z,96099.77
2019-02-23T07:05:42.296Z,96096.17
2019-02-23T07:08:08.618Z,96103.23
2019-02-23T07:10:34.955Z,96109.05
2019-02-23T07:13:01.290Z,96101.59
2019-02-23T07:15:27.630Z,96113.48
2019-02-23T07:17:54.010Z,96104.39
2019-02-23T07:20:20.300Z,96105.05
2019-02-23T07:22:46.672Z,96100.07
2019-02-23T07:25:13.008Z,96100.40
2019-02-23T07:27:39.502Z,96103.02
2019-02-23T07:30:05.831Z,96109.14
2019-02-23T07:32:32.214Z,96108.98
2019-02-23T07:34:58.547Z,96125.71
2019-02-23T07:37:25.034Z,96123.54
2019-02-23T07:39:51.355Z,96137.05
2019-02-23T07:42:17.716Z,96138.39
2019-02-23T07:44:44.092Z,96142.77
2019-02-23T07:47:10.429Z,96159.78
2019-02-23T07:49:36.846Z,96163.44
2019-02-23T07:52:03.219Z,96173.80
2019-02-23T07:54:29.549Z,96175.08
2019-02-23T07:56:55.918Z,96170.24
2019-02-23T07:59:22.285Z,96175.23
2019-02-23T08:01:48.668Z,96174.61
2019-02-23T08:04:14.997Z,96180.36
2019-02-23T08:06:41.500Z,96193.02
2019-02-23T08:09:07.815Z,96187.55
2019-02-23T08:11:34.183Z,96192.56
2019-02-23T08:14:00.594Z,96190.30
2019-02-23T08:16:26.966Z,96196.02
2019-02-23T08:18:53.295Z,96201.45
2019-02-23T08:21:19.673Z,96199.72
2019-02-23T08:23:46.003Z,96198.89
2019-02-23T08:26:12.360Z,96204.86
2019-02-23T08:28:38.698Z,96212.11
2019-02-23T08:31:05.011Z,96218.07
2019-02-23T08:33:31.392Z,96215.70
2019-02-23T08:35:57.729Z,96222.54
2019-02-23T08:38:24.062Z,96236.88
2019-02-23T08:40:50.427Z,96242.55
2019-02-23T08:43:16.797Z,96243.34
2019-02-23T08:45:43.134Z,96252.91
2019-02-23T08:48:09.559Z,96258.52
2019-02-23T08:50:35.888Z,96260.25
2019-02-23T08:53:02.221Z,96263.31
2019-02-23T08:55:28.555Z,96262.95
2019-02-23T08:57:54.882Z,96264.29
2019-02-23T09:00:21.209Z,96262.76
2019-02-23T09:02:47.582Z,96270.09
2019-02-23T09:05:13.953Z,96267.33
2019-02-23T09:07:40.298Z,96263.82
2019-02-23T09:10:06.626Z,96270.54
2019-02-23T09:12:32.971Z,96269.70
2019-02-23T09:14:59.303Z,96272.27
2019-02-23T09:17:25.868Z,96279.80
2019-02-23T09:19:52.196Z,96284.25
2019-02-23T09:22:18.557Z,96275.66
2019-02-23T09:24:45.099Z,96286.06
2019-02-23T09:27:11.431Z,96292.61
2019-02-23T09:29:37.845Z,96297.16
2019-02-23T09:32:04.126Z,96307.28
2019-02-23T09:37:12.813Z,96309.14
2019-02-23T09:39:39.093Z,96314.05
2019-02-23T09:42:07.690Z,96313.88
2019-02-23T09:44:31.940Z,96309.26
2019-02-23T09:46:58.323Z,96310.81
2019-02-23T09:49:24.682Z,96314.66
2019-02-23T09:51:51.025Z,96324.45
2019-02-23T09:54:17.369Z,96321.38
2019-02-23T09:56:43.710Z,96324.53
2019-02-23T09:59:10.132Z,96328.38
2019-02-23T10:01:36.549Z,96320.69
2019-02-23T10:04:02.875Z,96328.63
2019-02-23T10:06:29.281Z,96323.02
2019-02-23T10:08:55.568Z,96327.01
2019-02-23T10:11:21.975Z,96321.52
2019-02-23T10:13:48.293Z,96327.53
2019-02-23T10:16:14.697Z,96325.81
2019-02-23T10:18:41.028Z,96321.88
2019-02-23T10:21:07.381Z,96328.55
2019-02-23T10:23:33.720Z,96328.16
2019-02-23T10:26:00.053Z,96325.45
2019-02-23T10:28:26.420Z,96333.76
2019-02-23T10:30:52.771Z,96324.45
2019-02-23T10:33:19.145Z,96331.19
2019-02-23T10:35:45.585Z,96333.81
2019-02-23T10:38:11.946Z,96326.51
2019-02-23T10:40:38.299Z,96333.06
2019-02-23T10:43:04.620Z,96323.83
2019-02-23T10:45:30.950Z,96322.69
2019-02-23T10:47:57.281Z,96322.69
2019-02-23T10:50:23.655Z,96326.39
2019-02-23T10:52:49.985Z,96322.59
2019-02-23T10:55:16.326Z,96321.66
2019-02-23T10:57:42.723Z,96324.72
2019-02-23T11:00:09.077Z,96329.01
2019-02-23T11:02:35.446Z,96328.78
2019-02-23T11:05:01.789Z,96332.80
2019-02-23T11:07:28.163Z,96325.74
2019-02-23T11:09:54.523Z,96321.98
2019-02-23T11:12:20.874Z,96334.61
2019-02-23T11:14:47.256Z,96331.80
2019-02-23T11:17:13.610Z,96330.88
2019-02-23T11:19:40.066Z,96337.23
2019-02-23T11:22:06.343Z,96333.96
2019-02-23T11:24:32.697Z,96334.41
2019-02-23T11:26:59.127Z,96340.38
2019-02-23T11:29:25.463Z,96334.09
2019-02-23T11:31:51.798Z,96340.51
2019-02-23T11:34:18.195Z,96339.36
2019-02-23T11:36:44.481Z,96341.48
2019-02-23T11:39:10.799Z,96345.83
2019-02-23T11:41:37.173Z,96345.15
2019-02-23T11:44:03.526Z,96342.32
2019-02-23T11:46:29.979Z,96338.39
2019-02-23T11:48:56.416Z,96340.78
2019-02-23T11:51:22.765Z,96343.20
2019-02-23T11:53:54.912Z,96346.44
2019-02-23T11:56:15.436Z,96343.39
2019-02-23T11:58:41.811Z,96341.75
2019-02-23T12:01:08.142Z,96343.79
2019-02-23T12:03:34.517Z,96347.81
2019-02-23T12:06:00.856Z,96351.22
2019-02-23T12:08:27.168Z,96347.32
2019-02-23T12:10:53.547Z,96354.12
2019-02-23T12:13:19.926Z,96351.16
2019-02-23T12:15:46.365Z,96354.36
2019-02-23T12:18:12.697Z,96353.08
2019-02-23T12:20:39.051Z,96346.53
2019-02-23T12:23:05.417Z,96356.88
2019-02-23T12:25:31.882Z,96363.41
2019-02-23T12:27:58.213Z,96362.18
2019-02-23T12:30:24.611Z,96357.63
2019-02-23T12:32:50.962Z,96360.27
2019-02-23T12:35:17.452Z,96359.30
2019-02-23T12:37:43.720Z,96359.30
2019-02-23T12:40:10.083Z,96364.83
2019-02-23T12:42:36.426Z,96364.73
2019-02-23T12:45:02.803Z,96360.02
2019-02-23T12:47:29.192Z,96363.46
2019-02-23T12:49:55.600Z,96359.30
2019-02-23T12:52:21.957Z,96364.38
2019-02-23T12:54:48.367Z,96366.23
2019-02-23T12:57:14.698Z,96362.27
2019-02-23T12:59:41.056Z,96364.52
2019-02-23T13:02:07.455Z,96370.84
2019-02-23T13:04:33.707Z,96376.41
2019-02-23T13:07:00.080Z,96378.27
2019-02-23T13:09:26.448Z,96378.61
2019-02-23T13:11:52.859Z,96383.86
2019-02-23T13:14:19.192Z,96383.65
2019-02-23T13:16:45.639Z,96380.25
2019-02-23T13:19:11.923Z,96381.61
2019-02-23T13:21:38.312Z,96380.85
2019-02-23T13:24:04.642Z,96380.25
2019-02-23T13:26:30.993Z,96381.08
2019-02-23T13:28:57.323Z,96380.37
2019-02-23T13:31:23.680Z,96380.25
2019-02-23T13:33:50.037Z,96382.89
2019-02-23T13:36:16.416Z,96380.72
2019-02-23T13:38:42.744Z,96379.88
2019-02-23T13:41:09.126Z,96383.78
2019-02-23T13:43:35.429Z,96387.13
2019-02-23T13:46:01.756Z,96384.61
2019-02-23T13:48:28.092Z,96385.70
2019-02-23T13:50:54.416Z,96394.23
2019-02-23T13:53:20.742Z,96393.39
2019-02-23T13:55:47.079Z,96389.42
2019-02-23T13:58:13.479Z,96385.19
2019-02-23T14:00:39.825Z,96389.03
2019-02-23T14:03:06.163Z,96390.39
2019-02-23T14:05:32.500Z,96388.05
2019-02-23T14:07:58.913Z,96394.68
2019-02-23T14:10:25.253Z,96397.60
2019-02-23T14:12:51.629Z,96397.23
2019-02-23T14:15:17.953Z,96396.32
2019-02-23T14:17:44.285Z,96395.16
2019-02-23T14:20:10.743Z,96404.70
2019-02-23T14:22:37.089Z,96405.67
2019-02-23T14:25:03.420Z,96418.92
2019-02-23T14:27:29.752Z,96410.75
2019-02-23T14:29:56.188Z,96412.25
2019-02-23T14:32:22.455Z,96414.32
2019-02-23T14:34:48.841Z,96413.53
2019-02-23T14:37:15.116Z,96413.75
2019-02-23T14:39:41.536Z,96414.41
2019-02-23T14:42:07.863Z,96416.97
2019-02-23T14:44:34.274Z,96416.45
2019-02-23T14:47:00.608Z,96415.17
2019-02-23T14:49:26.942Z,96419.94
2019-02-23T14:51:53.420Z,96426.83
2019-02-23T14:54:19.735Z,96427.17
2019-02-23T14:56:46.051Z,96421.26
2019-02-23T14:59:12.323Z,96429.34
2019-02-23T15:01:38.758Z,96428.11
2019-02-23T15:04:05.089Z,96428.55
2019-02-23T15:06:31.534Z,96429.27
2019-02-23T15:08:57.881Z,96433.93
2019-02-23T15:11:24.202Z,96435.21
2019-02-23T15:13:50.563Z,96437.47
2019-02-23T15:16:17.610Z,96439.19
2019-02-23T15:18:43.254Z,96452.13
2019-02-23T15:21:09.591Z,96457.64
2019-02-23T15:23:35.970Z,96465.77
2019-02-23T15:26:02.276Z,96470.81
2019-02-23T15:28:37.475Z,96471.41
2019-02-23T15:30:55.118Z,96467.94
2019-02-23T15:33:21.439Z,96475.62
2019-02-23T15:35:47.816Z,96478.97
2019-02-23T15:38:14.170Z,96483.30
2019-02-23T15:40:40.538Z,96486.58
2019-02-23T15:43:06.841Z,96495.23
2019-02-23T15:45:33.188Z,96505.98
2019-02-23T15:47:59.615Z,96502.95
2019-02-23T15:50:25.928Z,96510.28
2019-02-23T15:52:52.303Z,96507.52
2019-02-23T15:55:25.970Z,96505.59
2019-02-23T15:57:44.958Z,96510.64
2019-02-23T16:00:11.328Z,96506.03
2019-02-23T16:02:37.667Z,96509.04
2019-02-23T16:05:04.080Z,96508.95
2019-02-23T16:07:30.562Z,96515.05
2019-02-23T16:09:56.899Z,96515.13
2019-02-23T16:12:23.278Z,96515.96
2019-02-23T16:14:49.608Z,96520.64
2019-02-23T16:17:16.012Z,96527.92
2019-02-23T16:19:42.373Z,96539.05
2019-02-23T16:22:08.680Z,96542.58
2019-02-23T16:24:35.075Z,96545.58
2019-02-23T16:27:01.474Z,96546.58
2019-02-23T16:29:27.825Z,96553.33
2019-02-23T16:31:54.125Z,96560.62
2019-02-23T16:34:20.485Z,96567.58
2019-02-23T16:36:47.167Z,96561.94
2019-02-23T16:39:13.549Z,96562.73
2019-02-23T16:41:39.918Z,96574.42
2019-02-23T16:44:06.273Z,96567.47
2019-02-23T16:46:32.591Z,96570.91
2019-02-23T16:48:58.968Z,96575.33
2019-02-23T16:51:25.353Z,96574.14
2019-02-23T16:53:51.742Z,96578.37
2019-02-23T16:56:18.075Z,96588.70
2019-02-23T16:58:44.472Z,96583.50
2019-02-23T17:01:10.796Z,96592.02
2019-02-23T17:03:37.197Z,96587.41
2019-02-23T17:06:06.580Z,96590.57
2019-02-23T17:08:32.908Z,96593.75
2019-02-23T17:10:59.290Z,96601.11
2019-02-23T17:13:25.671Z,96607.00
2019-02-23T17:15:52.021Z,96601.91
2019-02-23T17:18:18.356Z,96605.60
2019-02-23T17:20:44.723Z,96608.94
2019-02-23T17:23:11.087Z,96604.21
2019-02-23T17:25:37.420Z,96606.38
2019-02-23T17:28:06.962Z,96607.28
2019-02-23T17:30:30.179Z,96608.61
2019-02-23T17:32:56.516Z,96610.07
2019-02-23T17:35:22.853Z,96609.45
2019-02-23T17:37:49.294Z,96607.39
2019-02-23T17:40:15.586Z,96609.45
2019-02-23T17:42:41.926Z,96604.95
2019-02-23T17:45:08.264Z,96609.00
2019-02-23T17:47:34.595Z,96608.28
2019-02-23T17:50:00.927Z,96614.79
2019-02-23T17:52:27.292Z,96610.77
2019-02-23T17:54:54.547Z,96613.51
2019-02-23T17:57:20.026Z,96618.08
2019-02-23T17:59:46.418Z,96617.34
2019-02-23T18:02:12.787Z,96616.84
2019-02-23T18:04:39.199Z,96616.28
2019-02-23T18:07:05.557Z,96613.11
2019-02-23T18:09:31.884Z,96612.70
2019-02-23T18:11:58.214Z,96618.52
2019-02-23T18:14:24.587Z,96619.47
2019-02-23T18:16:53.711Z,96616.95
2019-02-23T18:19:20.044Z,96623.79
2019-02-23T18:21:46.399Z,96624.08
2019-02-23T18:24:12.737Z,96625.88
2019-02-23T18:26:39.246Z,96621.84
2019-02-23T18:29:05.587Z,96618.78
2019-02-23T18:31:31.929Z,96622.47
2019-02-23T18:33:58.292Z,96623.02
2019-02-23T18:36:24.758Z,96621.01
2019-02-23T18:38:51.106Z,96624.34
2019-02-23T18:41:17.454Z,96631.14
2019-02-23T18:43:43.852Z,96626.53
2019-02-23T18:46:10.195Z,96628.54
2019-02-23T18:48:36.515Z,96631.91
2019-02-23T18:51:02.867Z,96635.53
2019-02-23T18:53:29.244Z,96636.37
2019-02-23T18:55:55.564Z,96640.21
2019-02-23T18:58:23.897Z,96642.26
2019-02-23T19:00:48.261Z,96640.17
2019-02-23T19:03:14.595Z,96645.22
2019-02-23T19:05:49.451Z,96645.29
2019-02-23T19:08:07.440Z,96644.81
2019-02-23T19:10:33.793Z,96652.61
2019-02-23T19:13:00.161Z,96648.73
2019-02-23T19:15:26.494Z,96655.80
2019-02-23T19:17:52.830Z,96663.65
2019-02-23T19:20:19.189Z,96664.38
2019-02-23T19:22:45.516Z,96667.49
2019-02-23T19:25:11.844Z,96662.81
2019-02-23T19:27:40.437Z,96671.22
2019-02-23T19:30:06.787Z,96673.34
2019-02-23T19:32:33.112Z,96663.69
2019-02-23T19:34:59.453Z,96671.91
2019-02-23T19:37:25.784Z,96665.52
2019-02-23T19:39:52.130Z,96669.76
2019-02-23T19:42:18.528Z,96665.59
2019-02-23T19:44:45.186Z,96670.74
2019-02-23T19:47:11.570Z,96671.28
2019-02-23T19:49:37.875Z,96666.53
2019-02-23T19:52:04.251Z,96665.25
2019-02-23T19:54:30.590Z,96667.85
2019-02-23T19:56:56.998Z,96664.95
2019-02-23T19:59:23.320Z,96657.28
2019-02-23T20:01:49.727Z,96656.37
2019-02-23T20:04:16.066Z,96661.59
2019-02-23T20:06:42.412Z,96664.73
2019-02-23T20:09:08.742Z,96664.66
2019-02-23T20:11:35.117Z,96659.98
2019-02-23T20:14:01.458Z,96662.98
2019-02-23T20:16:27.790Z,96666.01
2019-02-23T20:18:54.110Z,96663.09
2019-02-23T20:21:20.438Z,96660.97
2019-02-23T20:23:48.050Z,96660.59
2019-02-23T20:26:13.153Z,96666.92
2019-02-23T20:28:39.442Z,96668.20
2019-02-23T20:31:05.770Z,96667.87
2019-02-23T20:33:32.104Z,96673.05
2019-02-23T20:35:58.422Z,96672.69
2019-02-23T20:38:24.765Z,96675.21
2019-02-23T20:40:51.107Z,96678.17
2019-02-23T20:43:17.431Z,96679.25
2019-02-23T20:45:43.928Z,96679.83
2019-02-23T20:48:10.203Z,96679.06
2019-02-23T20:50:36.616Z,96677.23
2019-02-23T20:53:02.954Z,96678.19
2019-02-23T20:55:29.288Z,96674.58
2019-02-23T20:57:55.619Z,96674.52
2019-02-23T21:00:21.938Z,96674.61
2019-02-23T21:02:48.255Z,96669.05
2019-02-23T21:05:14.595Z,96668.52
2019-02-23T21:07:40.921Z,96668.09
2019-02-23T21:10:07.251Z,96671.82
2019-02-23T21:12:33.581Z,96668.83
2019-02-23T21:14:59.951Z,96670.55
2019-02-23T21:17:26.308Z,96668.05
2019-02-23T21:19:52.658Z,96667.48
2019-02-23T21:22:19.433Z,96668.42
2019-02-23T21:24:45.330Z,96663.16
2019-02-23T21:27:13.183Z,96666.00
2019-02-23T21:29:38.047Z,96663.48
2019-02-23T21:32:04.355Z,96662.09
2019-02-23T21:34:31.465Z,96660.88
2019-02-23T21:36:57.790Z,96654.93
2019-02-23T21:39:24.132Z,96649.75
2019-02-23T21:41:50.450Z,96650.95
2019-02-23T21:44:16.916Z,96649.95
2019-02-23T21:46:43.255Z,96650.39
2019-02-23T21:49:09.593Z,96655.50
2019-02-23T21:51:35.924Z,96655.30
2019-02-23T21:54:09.922Z,96650.25
2019-02-23T21:56:28.576Z,96652.41
2019-02-23T21:58:54.917Z,96654.48
2019-02-23T22:01:21.275Z,96651.53
2019-02-23T22:03:47.621Z,96650.05
2019-02-23T22:06:13.966Z,96646.55
2019-02-23T22:08:40.292Z,96650.79
2019-02-23T22:11:06.705Z,96646.66
2019-02-23T22:13:32.953Z,96640.05
2019-02-23T22:15:59.310Z,96646.55
2019-02-23T22:18:25.639Z,96653.31
2019-02-23T22:20:52.178Z,96652.91
2019-02-23T22:23:18.492Z,96649.07
2019-02-23T22:25:44.832Z,96645.88
2019-02-23T22:28:11.162Z,96645.88
2019-02-23T22:30:37.488Z,96649.41
2019-02-23T22:33:03.822Z,96654.43
2019-02-23T22:35:30.153Z,96654.33
2019-02-23T22:37:56.635Z,96648.84
2019-02-23T22:40:22.949Z,96649.95
2019-02-23T22:42:49.449Z,96646.18
2019-02-23T22:45:15.786Z,96653.78
2019-02-23T22:47:42.121Z,96647.05
2019-02-23T22:50:08.504Z,96652.61
2019-02-23T22:52:34.847Z,96647.56
2019-02-23T22:55:01.196Z,96641.53
2019-02-23T22:57:27.602Z,96641.70
2019-02-23T22:59:53.969Z,96644.90
2019-02-23T23:02:20.334Z,96643.76
2019-02-23T23:04:46.694Z,96642.98
2019-02-23T23:07:13.069Z,96646.95
2019-02-23T23:09:39.617Z,96642.17
2019-02-23T23:12:05.969Z,96643.42
2019-02-23T23:14:32.295Z,96640.06
2019-02-23T23:16:58.790Z,96640.97
2019-02-23T23:19:25.117Z,96639.63
2019-02-23T23:21:51.449Z,96640.13
2019-02-23T23:24:17.815Z,96633.39
2019-02-23T23:26:44.155Z,96641.80
2019-02-23T23:29:10.512Z,96638.84
2019-02-23T23:31:36.847Z,96640.16
2019-02-23T23:34:03.235Z,96635.01
2019-02-23T23:36:32.623Z,96638.61
2019-02-23T23:38:58.950Z,96641.00
2019-02-23T23:41:25.280Z,96642.72
2019-02-23T23:43:51.614Z,96647.94
2019-02-23T23:46:18.055Z,96656.84
2019-02-23T23:48:44.399Z,96657.83
2019-02-23T23:51:10.732Z,96653.21
2019-02-23T23:53:37.067Z,96656.11
2019-02-23T23:56:03.430Z,96660.45
2019-02-23T23:58:29.848Z,96661.53
